To NAV CANADA Home Page Login to a new session Search on AWWS site Disclaimer Vers la page française équivalente Tips FAQ What's new on the site To the Forecasts and Observations / NOTAM section To "File a Flight Plan" website Publications and other links Update of the User's profile FIC Telephone Numbers My Weather Data Folder Route Weather Data Regional Weather Data Local Weather Data To the Forecasts and Observations / NOTAM section
Request Generated 03/19/2019 at 23:05:50 UTC . Weather information available at that time is displayed.

METAR/TAF

BELLA COOLA/BC    (show WxCam)

METAR CYBD 192300Z 26010KT 15SM FEW260 20/03 A2999 RMK CC1 CC TR SLP156 DENSITY ALT 700FT=
METAR CYBD 192200Z 11003KT 080V240 15SM SKC 20/M01 A3000 RMK SLP162 DENSITY ALT 700FT=
METAR CYBD 192100Z 00000KT 15SM SKC 19/M01 A3003 RMK SLP173 DENSITY ALT 500FT=

CYBD - No TAF is issued for this station

Your time UTC time
Weather data provided by Environment Canada and NAV CANADA